arxmliv
arxmliv build tool
 
KWARC group
LaTeXML
About
   
 

Detailed info

Back to Homepage

List of missing_macros

No. Date Filename num_warningnum_errornum_xmargok_xmargnum_xmathok_xmathMissing macros
81201 2013-03-15 01:29:30 /0904/0904.0565 34230000[{lemma}, {theorem}, \pdfbookmark, \LastPageEnding, \Classification, \ArticleDates, {remark}, \AuthorNameForHeading, \URLaddress, \ar, {proposition}, \Abstract, \ArticleName, \ShortArticleName, \FirstPageHeading, \xymatrix, \Address, \Author, Align, \Emai
81202 2013-03-15 01:29:21 /0904/0904.0599 22380000[\co, \volumenumber, \varPi, \issuenumber, \accepted, \subject, \doi, \keyword, \Zbl, \address, \papernumber, \givenname, \received, \mathbb, \theoremstyle, \editor, \proposed, \seconded, \published, \startpage, {asciiabstract}, \revised, \supsetneqq, \qu
81203 2013-03-15 01:29:17 /0904/0904.0590 12190000[\catchline, \epsfig, \tbl, \refcite, \keywords]; 1 missing file[ws.sty].
81204 2013-03-15 01:29:08 /0904/0904.0573 2810000[\institute]; 1 missing file[procmult.cls].
81205 2013-03-15 01:28:51 /0904/0904.0499 121170000[Align, \xymatrix, \ar]; 9 missing files[xycurve.sty, xymatrix.sty, xyline.sty, xyarrow.sty, xycmtip.sty, xycolor.sty, xyrotate.sty, xyframe.sty, xygraph.sty].
81206 2013-03-15 01:28:48 /0904/0904.0574 420000[\@currentID, \institute]; 1 missing file[procmult.cls].
81207 2013-03-15 01:28:19 /0904/0904.0568 930000[\nicefrac, \apprge, \institute]; 1 missing file[procmult.cls].
81208 2013-03-15 01:28:05 /0904/0904.0572 0150000[\extrasenglish, Align, \xymatrix, \ar, \dateenglish, \captionsenglish]; 9 missing files[xycurve.sty, xymatrix.sty, xyline.sty, xyarrow.sty, xycmtip.sty, xycolor.sty, xyrotate.sty, xyframe.sty, xygraph.sty].
81209 2013-03-15 01:27:49 /0904/0904.0561 9210000[{lemma}, {theorem}, \pdfbookmark, \LastPageEnding, \Classification, \ArticleDates, {remark}, \AuthorNameForHeading, {proposition}, \Abstract, \ArticleName, \ShortArticleName, \FirstPageHeading, \Address, \Author, \Email, {corollary}, \Keywords].
81210 2013-03-15 01:27:20 /0904/0904.0543 72440000[\N, \example, \harvarditem, \eps, \lemma, \corollary, \med, \cit, \E, \definition, \babs, \PP, \abs, \sgn, \arginf, \proposition, \R, \argmin, \assumption, \theorem, \remark, \V, \Var, \norm, \floor].
81211 2013-03-15 01:26:31 /0904/0904.0551 2480000[\address, \epsfbox, \pacs, \acknowledgements, \epsfxsize, \keywords].
81212 2013-03-15 01:26:07 /0904/0904.0497 9210000[{widetext}].
81213 2013-03-15 01:25:52 /0904/0904.0530 7910000[\theappendix].
81214 2013-03-15 01:25:34 /0904/0904.0552 010000[\nolinenumbers].
81215 2013-03-15 01:25:19 /0904/0904.0533 040000[\affil, \tableline, \acknowledgements]; 1 missing file[asp2006.sty].
81216 2013-03-15 01:24:43 /0904/0904.0524 010000[\newdefinition].
81217 2013-03-15 01:24:39 /0904/0904.0521 140000[\extrasenglish, \institute, \dateenglish, \captionsenglish]; 1 missing file[procmult.cls].
81218 2013-03-15 01:24:31 /0904/0904.0494 8630000[\IEEEmembership, \appendices, {proof}]; 1 missing file[IEEEtran.cls].
81219 2013-03-15 01:24:17 /0904/0904.0528 4100000[\includegraphics, \pacs, \email, \inst, \institute, \keywords, \articletype]; 1 missing file[cej.cls].
81220 2013-03-15 01:23:33 /0904/0904.0496 410000[\normalem].
81221 2013-03-15 01:23:08 /0904/0904.0495 030000[\extrasenglish, \dateenglish, \captionsenglish].
81222 2013-03-15 01:22:55 /0904/0904.0500 460000[\theappendix, \ocis, \address, \email]; 2 missing files[threeparttable.sty, pslatex.sty].
81223 2013-03-15 01:22:44 /0904/0904.0482 910000[\cortext].
81224 2013-03-15 01:22:27 /0904/0904.0485 010000[\psfrag].
81225 2013-03-15 01:22:19 /0904/0904.0471 8250000[{xy}, \frm].
81226 2013-03-15 01:21:56 /0904/0904.0490 410000[\subfloat].
81227 2013-03-15 01:21:15 /0904/0904.0458 11010000[\Ypsilon].
81228 2013-03-15 01:20:51 /0904/0904.0477 9110000[\Repeat, \li, \If, \proc, \Until, \Else, \Procname, {codebox}]; 3 missing files[marvosym.sty, xy.sty, clrscode.sty].
81229 2013-03-15 01:19:05 /0904/0904.0430 16170000[\KwData, \While, \KwResult, \Repeat, \SetLine, \dontprintsemicolon, \For, \KwTo, \tcp, \BlankLine, {algorithm2e}]; 1 missing file[soul.sty].
81230 2013-03-15 01:19:01 /0904/0904.0443 920000[\displaylimits]; 1 missing file[sublabel.sty].
81231 2013-03-15 01:18:58 /0904/0904.0436 6640000[Align, \xymatrix, \ar]; 1 missing file[xy.sty].
81232 2013-03-15 01:18:38 /0904/0904.0440 040000[\affil, \citep, \acknowledgements]; 1 missing file[asp2006.sty].
81233 2013-03-15 01:18:31 /0904/0904.0427 510000[\columns].
81234 2013-03-15 01:18:24 /0904/0904.0449 440000[\pagespan, \address, \theoremstyle]; 2 missing files[w-art1.cls, w-thm1.sty].
81235 2013-03-15 01:17:58 /0904/0904.0398 2130000[\hexstar, \subsetplus]; 1 missing file[xy.sty].
81236 2013-03-15 01:17:41 /0904/0904.0418 030000[\extrasenglish, \dateenglish, \captionsenglish].
81237 2013-03-15 01:17:28 /0904/0904.0419 210000[\subfloat].
81238 2013-03-15 01:17:08 /0904/0904.0409 15310000[{co}].
81239 2013-03-15 01:17:07 /0904/0904.0425 1060000[\includegraphics, \ShortTitle, \email, \FullConference, \acknowledgments, \speaker]; 1 missing file[PoS.cls].
81240 2013-03-15 01:16:47 /0904/0904.0415 130000[\address, \email, \runningtitle]; 1 missing file[eas.cls].
81241 2013-03-15 01:16:07 /0904/0904.0400 6040000[{history}, \revised, \received]; 1 missing file[ws.sty].
81242 2013-03-15 01:15:41 /0904/0904.0406 010000[\marginsize].
81243 2013-03-15 01:15:15 /0904/0904.0385 040000[\ead]; 1 missing file[aas_macros.sty].
81244 2013-03-15 01:15:04 /0904/0904.0368 31910000[\epigraph].
81245 2013-03-15 01:15:04 /0904/0904.0378 1160000[\Line, \Text, \ArrowLine, \Photon, \Gluon, \DashLine].
81246 2013-03-15 01:15:02 /0904/0904.0381 29110000[\Arc, \Line, \SetColor, \CBox, \Black, \Text, \Vertex, \SetWidth, \GOval, \Gluon]; 1 missing file[axodraw4j.sty].
81247 2013-03-15 01:14:48 /0904/0904.0391 250000[\includegraphics, \ShortTitle, \email, \FullConference, \speaker]; 1 missing file[PoS.cls].
81248 2013-03-15 01:14:40 /0904/0904.0373 5210000[\fancyplain].
81249 2013-03-15 01:14:38 /0904/0904.0393 150000[\includegraphics, \ShortTitle, \email, \FullConference, \speaker]; 1 missing file[PoS.cls].
81250 2013-03-15 01:14:31 /0904/0904.0394 040000[\includegraphics, \ea, \bpl]; 1 missing file[bpl.sty].
81251 2013-03-15 01:14:25 /0904/0904.0374 160000[\sameaddress, \address, \ie, \runningtitle, \etal, \secondaddress]; 1 missing file[eas.cls].
81252 2013-03-15 01:14:23 /0904/0904.0376 030000[\fnref, \cortext, \fntext].
81253 2013-03-15 01:14:08 /0904/0904.0384 910000[\subfloat].
81254 2013-03-15 01:13:50 /0904/0904.0365 34160000[\startlocaldefs, \affiliation, \thankstext, \runtitle, \address, \thanksref, \psfrag, \kwd, \snm, \fnms, {keyword}, {aug}, \runauthor, \printead, {frontmatter}, \ead]; 1 missing file[imsart.cls].
81255 2013-03-15 01:13:31 /0904/0904.0364 740000[\textfrak, \ead]; 1 missing file[oldgerm.sty].
81256 2013-03-15 01:12:27 /0904/0904.0261 110000[\theappendix].
81257 2013-03-15 01:12:15 /0904/0904.0358 1120000[\newindex, \editors, \affiliation, \discuss, \keywords, \volume, \firstsection, {discussion}, \pagerange, \jname, \etal, \pubyear]; 1 missing file[iaus.cls].
81258 2013-03-15 01:11:58 /0904/0904.0335 12710000[\infer].
81259 2013-03-15 01:11:52 /0904/0904.0362 8020000[\PACS]; 1 missing file[size11.clo.sty].
81260 2013-03-15 01:11:51 /0904/0904.0339 120000[\smaller].
81261 2013-03-15 01:11:14 /0904/0904.0344 160000[\toctitle, \keyword, \titlerunning, \institute, \authorrunning]; 2 missing files[chaos2009.cls, chaos2009References.sty].
81262 2013-03-15 01:11:04 /0904/0904.0348 2880000[\sodauthor, \rauthor, \address, \sodtitle, \dates, \lat, \PACS, \rtitle].
81263 2013-03-15 01:10:47 /0904/0904.0322 140000[\runauthor, {frontmatter}].
81264 2013-03-15 01:10:47 /0904/0904.0330 140000[\arcmin, \affil, \arcsec, \keywords]; 1 missing file[vow2008.cls].
81265 2013-03-15 01:10:38 /0904/0904.0308 16930000[{keywords}, \PARstart, {proof}]; 1 missing file[IEEEtran.cls].
81266 2013-03-15 01:10:32 /0904/0904.0303 2440000[Align, \xymatrix, \ar]; 1 missing file[xy.sty].
81267 2013-03-15 01:10:25 /0904/0904.0324 1710000[\theappendix].
81268 2013-03-15 01:10:24 /0904/0904.0307 7710000[{keywords}]; 1 missing file[IEEEtran.cls].
81269 2013-03-15 01:09:47 /0904/0904.0306 140000[\cortext, \fntext].
81270 2013-03-15 01:09:19 /0904/0904.0292 5140000[\SetKwComment, {algorithm}, \SetTitleSty, \SetArgSty, \linesnumbered, \incmargin, \restylealgo, \FuncSty, \If, \For, \dontprintsemicolon, \KwTo, \Return, \KwSty].
81271 2013-03-15 01:08:46 /0904/0904.0298 40120000[\psfig, \tbl, \fref, \keywords, \colrule, \Fref, \tref, \botrule, \bodymatter, \toprule, \sref]; 1 missing file[ws.sty].
81272 2013-03-15 01:08:32 /0904/0904.0033 135290000[\degreeyear, \advisor, \LoFisShort, \dedication, \otherdegrees, \LoTisShort, {sidewaystable}, \thechapter, \OnePageChapter, \@currentID, \dept, \reader, \degree, \acknowledgements]; 1 missing file[thesis.cls].
81273 2013-03-15 01:08:21 /0904/0904.0277 2210000[\slashed].
81274 2013-03-15 01:08:06 /0904/0904.0288 130000[\authorblockN, \authorblockA, \IEEEpeerreviewmaketitle]; 1 missing file[IEEEtran.cls].
81275 2013-03-15 01:07:32 /0904/0904.0260 270000[\issue, \book, \email, \vol, \institute, \rev, \name]; 1 missing file[sifrev.cls].
81276 2013-03-15 01:07:24 /0904/0904.0267 1710000[\oiint].
81277 2013-03-15 01:07:09 /0904/0904.0243 17180000[\ls, \iffontfound, \ifCUPmtlplainloaded, \affiliation, \ns, \volume, \pagerange, \checkfont, \pubyear]; 1 missing file[jfm.cls].
81278 2013-03-15 01:06:31 /0904/0904.0222 9880000[\fmffreeze, {fmffile}, {fmfgraph}, \fmf, \fmfleft, \fmfright].
81279 2013-03-15 01:06:25 /0904/0904.0244 3210000[\unit].
81280 2013-03-15 01:06:24 /0904/0904.0237 2720000[\co, \maxrad, \accepted, \subject, \conferenceend, \mathfrak, \Out, \DeclareMathOperator, \Zbl, \address, \Id, \papernumber, \givenname, \Map, \hyperlink, \received, \mathbb, \PSL, \proposed, \Ric, {asciiabstract}, \Isom, \Bers, \qua, \Diff, \endpage, \v
81281 2013-03-15 01:06:16 /0904/0904.0246 20240000[\midrule, \acknowledgments, \keywords, \includegraphics, \href, \jinst, \toprule, \bottomrule, \astroph]; 1 missing file[JINST.cls].
81282 2013-03-15 01:06:09 /0904/0904.0247 020000[\layoutstyle, \classification].
81283 2013-03-15 01:05:48 /0904/0904.0200 1150000[\subref, \mathinner].
81284 2013-03-15 01:05:37 /0904/0904.0227 15570000[{lemma}, {theorem}, {xpar}, \xymatrix, \newdir, \entrymodifiers, {definition}, Align, {corollary}, {remark}, \SelectTips, \ar, {proposition}]; 2 missing files[mytheorems2.sty, xy.sty].
81285 2013-03-15 01:05:32 /0904/0904.0235 6390000[\dTo, Align, \diagramstyle, {bibsection}, \rTo, {diagram}].
81286 2013-03-15 01:04:40 /0904/0904.0226 460000[\authorblockN, \subfloat, \authorblockA, \IEEEpeerreviewmaketitle, \appendices]; 2 missing files[subfloat.sty, IEEEtran.cls].
81287 2013-03-15 01:04:31 /0904/0904.0225 020000[\unit].
81288 2013-03-15 01:04:13 /0904/0904.0217 11190000[\IEEEauthorblockA, \IEEEauthorblockN, \EndProcedure, {algorithm}, \tlput, \Comment, {algorithmic}, \If, \For, {IEEEproof}, \EndIf, \Procedure, \EndFor, \EndWhile, \While, \State, \trput]; 2 missing files[algorithme.sty, IEEEtran.cls].
81289 2013-03-15 01:04:09 /0904/0904.0180 34150000[{comment}, \color, \definecolor].
81290 2013-03-15 01:04:00 /0904/0904.0216 1070000[\includegraphics, \pacs, \shorttitle, \shortauthor, \institute, \acknowledgments, \etal]; 1 missing file[epl2.cls].
81291 2013-03-15 01:03:27 /0904/0904.0202 190000[\affil, \citep, {article}, \authoraddr, \authorrunninghead, \linenumbers, \reference, \titlerunninghead, {acknowledgements}]; 1 missing file[agu2001.cls].
81292 2013-03-15 01:03:14 /0904/0904.0170 18130000[\Abstract, \ArticleName, \EmailD, \ShortArticleName, \FirstPageHeading, \Address, \pdfbookmark, \LastPageEnding, \Classification, \ArticleDates, \Author, \AuthorNameForHeading, \Keywords].
81293 2013-03-15 01:03:14 /0904/0904.0189 110000[\theappendix].
81294 2013-03-15 01:03:04 /0904/0904.0191 1440000[\volumenumber, \issuenumber, \accepted, \subject, \doi, \conferenceend, \keyword, \Zbl, \address, \conferencelocation, \papernumber, \givenname, \received, \mathbb, \theoremstyle, \wwhat, \wwtilde, \editor, \proposed, \tfrac, \numberwithin, \seconded, \w
81295 2013-03-15 01:02:33 /0904/0904.0182 5430000[\co, \volumenumber, \issuenumber, \accepted, \subject, \doi, \conferenceend, \keyword, \Zbl, \address, \conferencelocation, \operatorname, \papernumber, \givenname, \received, \mathbb, \theoremstyle, \editor, \psfig, \proposed, \seconded, \published, \st
81296 2013-03-15 01:02:27 /0904/0904.0134 71610000[\g, \Ext, \N, \rk, \dist, \eps, \Spann, \1, \K, \su, \conv, \Z, \bQ, \End, \ev, \indlim, \fg, \cP, \OO, \mlabel, \gl, \Rarrow, Align, \fk, \fsl, \fo, \z, \fh, \h, \im, \res, \ra, \eset, \ord, \cW, \C, \der, \pmat, \id, \cL, \Ad, \tr, \oline, \Hom, \Q, \f
81297 2013-03-15 01:02:11 /0904/0904.0174 26210000[\integral, \s, \DO, {dfn}, \Mmu, {rmk}, \M, {lem}, {thm}, {thm*}, {cor}, \tr, \satx, {prop}, \Matx, \pos, \Mhyp, \R, \Vol, \V]; 1 missing file[mfdmetrics.sty].
81298 2013-03-15 01:01:54 /0904/0904.0072 16280000[\topmargin, \oddsidemargin].
81299 2013-03-15 01:01:52 /0904/0904.0173 1100000[{acknowledgments}, \citep, {article}, \authoraddr, \authorrunninghead, \altaffilmark, \setkeys, \citet, \altaffiltext, \titlerunninghead]; 1 missing file[AGUTeX.cls].
81300 2013-03-15 01:01:13 /0904/0904.0143 510000[\theappendix].
81301 2013-03-15 01:00:55 /0904/0904.0152 7120000[\affil, \apj, \aj, \apss, \apjl, \nat, \aap, \mnras, \apjs, \araa, \acknowledgements]; 1 missing file[asp2006.sty].
81302 2013-03-15 01:00:49 /0904/0904.0136 2020000[\backslashbox]; 1 missing file[slashbox.sty].
81303 2013-03-15 01:00:43 /0904/0904.0139 610000[\slashed].
81304 2013-03-15 00:59:56 /0904/0904.0122 010000[\meter].
81305 2013-03-15 00:59:50 /0904/0904.0098 3120000[\fint]; 1 missing file[esint.sty].
81306 2013-03-15 00:59:46 /0904/0904.0111 1310000[\theappendix].
81307 2013-03-15 00:59:25 /0904/0904.0112 580000[{keyword}, \address, \cortext, \sep, \PACS, \corref, {frontmatter}, \ead]; 1 missing file[style_.cls].
81308 2013-03-15 00:58:58 /0904/0904.0051 3170000[\Black, \Text, \Vertex, \ArrowLine, \DashLine, \Gluon, \SetColor].
81309 2013-03-15 00:58:56 /0904/0904.0068 2810000[\theappendix].
81310 2013-03-15 00:58:12 /0904/0904.0071 217250000[{prooftree}, \UnaryInfC, \RightLabel, \cortext, \BinaryInfC, \DisplayProof, \AxiomC]; 1 missing file[bussproofs.sty].
81311 2013-03-15 00:58:00 /0904/0904.0087 930000[\midrule, \toprule, \bottomrule].
81312 2013-03-15 00:57:46 /0904/0904.0077 610000[\QDATOPD].
81313 2013-03-15 00:57:41 /0904/0904.0078 4240000[\endxy, \xy, \ar]; 1 missing file[xy.sty].
81314 2013-03-15 00:57:34 /0904/0904.0069 33100000[\widecheck, \curvearrowbotleft].
81315 2013-03-15 00:57:16 /0904/0904.0047 710000[\psfrag].
81316 2013-03-15 00:57:10 /0904/0904.0043 1640000[Align, \xymatrix, \ar]; 1 missing file[xy.sty].
81317 2013-03-15 00:56:45 /0904/0904.0034 11110000[\theappendix].
81318 2013-03-15 00:56:26 /0904/0904.0031 640000[Align, \xymatrix, \ar]; 1 missing file[xy.sty].
81319 2013-03-15 00:55:49 /0904/0904.0012 2010000[\psfrag].
81320 2013-03-15 00:55:33 /0904/0904.0017 1340000[\volumenumber, \issuenumber, \accepted, \doi, \subject, \conferenceend, \Zbl, \keyword, \address, \conferencelocation, \papernumber, \givenname, \received, \theoremstyle, \editor, \proposed, \seconded, \published, \startpage, \revised, \qua, \endpage, \v
81321 2013-03-15 00:55:24 /0903/0903.5530 5810000[\mathds].
81322 2013-03-15 00:55:18 /0904/0904.0014 5820000[\co, \volumenumber, \issuenumber, \accepted, \subject, \doi, \conferenceend, {htmlabstract}, \keyword, \Zbl, \address, \conferencelocation, \papernumber, \givenname, \makeop, \received, {align*}, \pinlabel, \theoremstyle, \editor, \proposed, \seconded, A
81323 2013-03-15 00:55:17 /0903/0903.5510 16260000[Align, \xymatrix, \ar]; 2 missing files[fontsmpl.sty, xy.sty].
81324 2013-03-15 00:55:10 /0903/0903.5521 6910000[\psfrag].
81325 2013-03-15 00:55:10 /0904/0904.0013 020000[{sidewaystable}].
81326 2013-03-15 00:55:05 /0903/0903.5535 640000[\reqno, \appendices, {proof}]; 2 missing files[type1cm.sty, DaniArxiv.cls].
81327 2013-03-15 00:54:59 /0903/0903.5517 140640000[\abs, \mathds, \shortintertext, \DeclarePairedDelimiter, {bmatrix*}]; 2 missing files[mathtools.sty, hypcap.sty].
81328 2013-03-15 00:54:48 /0904/0904.0003 860000[\sectionfont]; 2 missing files[sectsty.sty, xy.sty].
81329 2013-03-15 00:54:35 /0904/0904.0005 530000[\midrule, \toprule, \bottomrule].
81330 2013-03-15 00:54:32 /0903/0903.5544 020000[\layoutstyle, \classification].
81331 2013-03-15 00:54:23 /0904/0904.0006 5210000[{addendum}, \geometry, {affiliations}]; 1 missing file[natureastroph.cls].
81332 2013-03-15 00:54:21 /0903/0903.5538 5010000[\slashed].
81333 2013-03-15 00:54:20 /0903/0903.5496 18340000[Align, \xymatrix, \ar]; 1 missing file[xy.sty].
81334 2013-03-15 00:54:06 /0903/0903.5543 31460000[\co, \volumenumber, \issuenumber, \accepted, \subject, \doi, \conferenceend, \tilde, \keyword, \Zbl, \address, \conferencelocation, \papernumber, \givenname, \makeop, \received, \mathbb, \pinlabel, \theoremstyle, \editor, \proposed, \tfrac, \seconded, \p
81335 2013-03-15 00:52:58 /0903/0903.5527 350000[\ack, \mr, \nonum, \br, \ead].
81336 2013-03-15 00:52:47 /0903/0903.5522 67460000[\endxy, Align, \dir, \xymatrix, \crv, \ellipse, \xy, \ar, \CompileMatrices]; 10 missing files[xycurve.sty, xymatrix.sty, xyline.sty, xyarrow.sty, xycmtip.sty, xycolor.sty, xyrotate.sty, xy.sty, xyframe.sty, xygraph.sty].
81337 2013-03-15 00:52:42 /0903/0903.5516 9940000[Align, \xymatrix, \ar]; 1 missing file[xy.sty].
81338 2013-03-15 00:52:38 /0903/0903.5515 27320000[Align, \SelectTips, \xymatrix, \newdir, \ar]; 1 missing file[xy.sty].
81339 2013-03-15 00:52:38 /0903/0903.5529 060000[{theacknowledgments}, \layoutstyle, \classification]; 1 missing file[{aipcheck}].
81340 2013-03-15 00:51:43 /0903/0903.5518 370000[{IEEEkeywords}, \IEEEPARstart, \ifCLASSOPTIONcaptionsoff, \ifCLASSINFOpdf]; 1 missing file[IEEEtran.cls].
81341 2013-03-15 00:51:26 /0903/0903.5495 940000[\citen].
81342 2013-03-15 00:51:07 /0903/0903.5497 2360000[\includegraphics, \ShortTitle, \email, \FullConference, \speaker]; 1 missing file[PoS.cls].
81343 2013-03-15 00:51:04 /0903/0903.5473 730000[\theappendix].
81344 2013-03-15 00:51:04 /0903/0903.5476 5710000[\theappendix].
81345 2013-03-15 00:51:03 /0903/0903.5490 1530000[\midrule, \toprule, \bottomrule].
81346 2013-03-15 00:50:46 /0903/0903.5499 270000[\pacs, \inst, \Name, \shortauthor, \institute, \REVIEW, {acknowledgements}]; 1 missing file[epl2.cls].
81347 2013-03-15 00:50:40 /0903/0903.5487 330000[\Qlb, \Qcb, \FRAME].
81348 2013-03-15 00:50:39 /0903/0903.5489 23230000[\Book, \pacs, \inst, \shortauthor, \institute, \onefigure, \acknowledgments, \Publ, \shorttitle, \Name, \Year, \REVIEW, \etal]; 1 missing file[epl2.cls].
81349 2013-03-15 00:50:26 /0903/0903.5441 138550000[{comment}].
81350 2013-03-15 00:50:15 /0903/0903.5453 2240000[\nicefrac, {comment}, \setmarginsrb]; 1 missing file[fancyvrb.sty].
81351 2013-03-15 00:50:07 /0903/0903.5463 3630000[{sidewaystable}]; 1 missing file[parskip.sty].
81352 2013-03-15 00:50:01 /0903/0903.5442 43370000[Align, {xy}, \xymatrix, \ar]; 1 missing file[xy.sty].
81353 2013-03-15 00:49:57 /0903/0903.5454 4260000[Align, \restore, \save, \xymatrix, \ar]; 1 missing file[xy.sty].
81354 2013-03-15 00:49:47 /0903/0903.5478 5170000[\psfig, \bodymatter, \tbl, \keywords]; 1 missing file[ws.sty].
81355 2013-03-15 00:49:36 /0903/0903.5451 270000[\mnras, \apjs, \apj, \aj, \nat, \aap]; 1 missing file[aas_macros.sty].
81356 2013-03-15 00:49:06 /0903/0903.5470 910000[\institute]; 1 missing file[ismd08.cls].
81357 2013-03-15 00:48:50 /0903/0903.5447 1120000[\a].
81358 2013-03-15 00:48:42 /0903/0903.5406 4770000[\noappendicestocpagenum, \supervisors, \coord, \submitdate, \dept, \phdy]; 1 missing file[unisaphd.sty].
81359 2013-03-15 00:48:33 /0903/0903.5450 18130000[\psfrag, \displaylimits].
81360 2013-03-15 00:48:08 /0903/0903.5422 23120000[Align, \xymatrix, \ar]; 9 missing files[xycurve.sty, xymatrix.sty, xyline.sty, xyarrow.sty, xycmtip.sty, xycolor.sty, xyrotate.sty, xyframe.sty, xygraph.sty].
81361 2013-03-15 00:47:31 /0903/0903.5419 3710000[\theappendix].
81362 2013-03-15 00:47:27 /0903/0903.5429 2120000[{keywords}]; 1 missing file[isipta2009.sty].
81363 2013-03-15 00:47:11 /0903/0903.5418 46170000[{theorem}, \URLaddressD, \EmailD, \pdfbookmark, \LastPageEnding, \Classification, \ArticleDates, {example}, {remark}, \AuthorNameForHeading, \Abstract, \ArticleName, \ShortArticleName, \FirstPageHeading, \Address, \Author, \Keywords].
81364 2013-03-15 00:47:00 /0903/0903.5434 1110000[\psfig, \tbl, \refcite, \address, \colrule, \botrule, \text, \toprule]; 1 missing file[ws-style.cls].
81365 2013-03-15 00:47:00 /0903/0903.5437 830000[\ack, \ead]; 1 missing file[xy.sty].
81366 2013-03-15 00:46:45 /0903/0903.5426 4320000[{keywords}, {proof}]; 1 missing file[IEEEtran.cls].
81367 2013-03-15 00:46:22 /0903/0903.5412 240000[\tnoteref, \tnotetext, \newproof, {proof}].
81368 2013-03-15 00:46:12 /0903/0903.5401 440000[\theappendix, \ocis, \address, \email].
81369 2013-03-15 00:46:10 /0903/0903.5410 3130000[\Book, \pacs, \institute, \onefigure, \shorttitle, \email, \Publ, \Name, \Year, \REVIEW]; 1 missing file[epl2.cls].
81370 2013-03-15 00:46:04 /0903/0903.5408 760000[\includegraphics, \ShortTitle, \email, \FullConference, \acknowledgments, \speaker]; 1 missing file[PoS.cls].
81371 2013-03-15 00:45:55 /0903/0903.5415 330000[\kword, \abst, \inst].
81372 2013-03-15 00:45:40 /0903/0903.5316 15790000[\CYRYU, \cyrd, \CYRE, \cyrishrt, \CYRB, \cyrl, \CYRS, \CYRCH, \cyrerev, \cyrv, \CYRU, \cyryu, \CYRC, \cyrsftsn, \CYRL, \CYRT, \cyrk, \cyryo, \cyro, \cyrb, \cyrz, \cyrch, \cyru, \CYRSH, \CYRK, \cyra, \cyrsh, \CYRI, \CYRYA, \CYRD, \cyrf, \cyrg, \cyrs, \cyr
81373 2013-03-15 00:45:36 /0903/0903.5405 5110000[\mathds].
81374 2013-03-15 00:45:17 /0903/0903.5404 9120000[\includegraphics, \ShortTitle, \email, \FullConference, \speaker]; 1 missing file[PoS.cls].
81375 2013-03-15 00:44:57 /0903/0903.5396 350000[\authorinfo, \tciFourier, \acknowledgments, \keywords, \supit]; 1 missing file[spie.cls].
81376 2013-03-15 00:44:53 /0903/0903.5341 36230000[\mathbb, \mathfrak]; 1 missing file[amssymb%.sty].
81377 2013-03-15 00:44:43 /0903/0903.5367 55880000[\Ejct, \eps, \LLxx, \DLxx, \iLLxx, \gammaz, \reference, \LocHmax, \diag, \Kijdash, \idNdz, \Dvz, \DLzz, \LocH, \gNjct, \njct, \TimeH, \gNleft, \iLxx, \DKijdash, \zvac, \iLzz, \iN, \idLxxdz, \DKzz, \KxxDz, \dLLxxdz, \KijmuDash, \Rz, \iNvac, \iRz, \DDLij,
81378 2013-03-15 00:44:18 /0903/0903.5365 194130000[\DDLsqijDeta, \BigO, \PxPeta, \DLsqijDeta, \deta, \Lij, {spreadlines}, \DLijDeta, \reference, \dlam, \DDLijDeta, \PxPlam]; 1 missing file[paper.sty].
81379 2013-03-15 00:43:58 /0903/0903.5364 1180000[\apj, \citep, \pasj, \nat, \aap, \altaffilmark, \Received, \apjs, \mnras, \FigureFile, \Accepted, \altaffiltext, \citet, \SetRunningHead, \KeyWords]; 1 missing file[pasj00.cls].
81380 2013-03-15 00:43:50 /0903/0903.5366 030000[\extrasenglish, \dateenglish, \captionsenglish].
81381 2013-03-15 00:43:32 /0903/0903.5345 21620000[\IR]; 1 missing file[boxedminipage.sty].
81382 2013-03-15 00:43:17 /0903/0903.5355 3760000[\theappendix, \josa, \ocis, \address, \email, \url].
81383 2013-03-15 00:42:56 /0903/0903.5357 0160000[\ack, \mr, {thereferences}, \br, \ead].
81384 2013-03-15 00:41:38 /0903/0903.5335 0150000[\ack, \mr, {thereferences}, \br, \ead].
81385 2013-03-15 00:41:27 /0903/0903.5340 6170000[\solar, \apj, \timeform, \citep, \aaps, \aap, \aapr, \Accepted, \email, \KeyWords, \altaffilmark, \Received, \apjs, \mnras, \FigureFile, \altaffiltext, \SetRunningHead]; 1 missing file[pasj00.cls].
81386 2013-03-15 00:40:53 /0903/0903.5314 840000[Align, \xymatrix, \ar]; 1 missing file[xy.sty].
81387 2013-03-15 00:40:34 /0903/0903.5305 2410000[\slashed].
81388 2013-03-15 00:40:23 /0903/0903.5307 3310000[\subfloat].
81389 2013-03-15 00:40:18 /0903/0903.5288 3140000[Align, \xymatrix, \ar]; 1 missing file[xy.sty].
81390 2013-03-15 00:40:03 /0903/0903.5292 1910000[{comment}].
81391 2013-03-15 00:39:51 /0903/0903.5293 620000[\apprge]; 1 missing file[marvosym.sty].
81392 2013-03-15 00:39:16 /0903/0903.5299 010000[\geometry].
81393 2013-03-15 00:39:08 /0903/0903.5044 253820000[\dLine, \rdTo, \rTo, \ruTo, \rLine, \dTo, \fancyplain, Align, \uTo, \headrulewidth, \ldTo, {diagram}]; 1 missing file[diagrams].
81394 2013-03-15 00:39:02 /0903/0903.5280 130000[\affil, \aap]; 1 missing file[asp2006.sty].
81395 2013-03-15 00:39:01 /0903/0903.5282 320000[{proof}]; 2 missing files[IEEEtran.cls, ccaption.sty].
81396 2013-03-15 00:38:39 /0903/0903.5281 140000[\ShortTitle, \email, \FullConference, \speaker]; 1 missing file[POS.cls].
81397 2013-03-15 00:38:30 /0903/0903.5255 95120000[\kwd, \snm, \affiliation, {keyword}, \fnms, \thankstext, \runtitle, {aug}, \address, \printead, {frontmatter}, \ead].
81398 2013-03-15 00:38:22 /0903/0903.5290 1240000[Align, \xymatrix, \ar]; 1 missing file[xy.sty].
81399 2013-03-15 00:37:57 /0903/0903.5239 4670000[\QATOPD, \tbigcup, \tprod, \QOVERD, \tbigoplus, \tsum].
81400 2013-03-15 00:37:50 /0903/0903.5261 2710000[\mathds].
<<< >>>

[0] [200] [400] [600] [800] [1000] [1200] [1400] [1600] [1800] [2000] [2200] [2400] [2600] [2800] [3000] [3200] [3400] [3600] [3800] [4000] [4200] [4400] [4600] [4800] [5000] [5200] [5400] [5600] [5800] [6000] [6200] [6400] [6600] [6800] [7000] [7200] [7400] [7600] [7800] [8000] [8200] [8400] [8600] [8800] [9000] [9200] [9400] [9600] [9800] [10000] [10200] [10400] [10600] [10800] [11000] [11200] [11400] [11600] [11800] [12000] [12200] [12400] [12600] [12800] [13000] [13200] [13400] [13600] [13800] [14000] [14200] [14400] [14600] [14800] [15000] [15200] [15400] [15600] [15800] [16000] [16200] [16400] [16600] [16800] [17000] [17200] [17400] [17600] [17800] [18000] [18200] [18400] [18600] [18800] [19000] [19200] [19400] [19600] [19800] [20000] [20200] [20400] [20600] [20800] [21000] [21200] [21400] [21600] [21800] [22000] [22200] [22400] [22600] [22800] [23000] [23200] [23400] [23600] [23800] [24000] [24200] [24400] [24600] [24800] [25000] [25200] [25400] [25600] [25800] [26000] [26200] [26400] [26600] [26800] [27000] [27200] [27400] [27600] [27800] [28000] [28200] [28400] [28600] [28800] [29000] [29200] [29400] [29600] [29800] [30000] [30200] [30400] [30600] [30800] [31000] [31200] [31400] [31600] [31800] [32000] [32200] [32400] [32600] [32800] [33000] [33200] [33400] [33600] [33800] [34000] [34200] [34400] [34600] [34800] [35000] [35200] [35400] [35600] [35800] [36000] [36200] [36400] [36600] [36800] [37000] [37200] [37400] [37600] [37800] [38000] [38200] [38400] [38600] [38800] [39000] [39200] [39400] [39600] [39800] [40000] [40200] [40400] [40600] [40800] [41000] [41200] [41400] [41600] [41800] [42000] [42200] [42400] [42600] [42800] [43000] [43200] [43400] [43600] [43800] [44000] [44200] [44400] [44600] [44800] [45000] [45200] [45400] [45600] [45800] [46000] [46200] [46400] [46600] [46800] [47000] [47200] [47400] [47600] [47800] [48000] [48200] [48400] [48600] [48800] [49000] [49200] [49400] [49600] [49800] [50000] [50200] [50400] [50600] [50800] [51000] [51200] [51400] [51600] [51800] [52000] [52200] [52400] [52600] [52800] [53000] [53200] [53400] [53600] [53800] [54000] [54200] [54400] [54600] [54800] [55000] [55200] [55400] [55600] [55800] [56000] [56200] [56400] [56600] [56800] [57000] [57200] [57400] [57600] [57800] [58000] [58200] [58400] [58600] [58800] [59000] [59200] [59400] [59600] [59800] [60000] [60200] [60400] [60600] [60800] [61000] [61200] [61400] [61600] [61800] [62000] [62200] [62400] [62600] [62800] [63000] [63200] [63400] [63600] [63800] [64000] [64200] [64400] [64600] [64800] [65000] [65200] [65400] [65600] [65800] [66000] [66200] [66400] [66600] [66800] [67000] [67200] [67400] [67600] [67800] [68000] [68200] [68400] [68600] [68800] [69000] [69200] [69400] [69600] [69800] [70000] [70200] [70400] [70600] [70800] [71000] [71200] [71400] [71600] [71800] [72000] [72200] [72400] [72600] [72800] [73000] [73200] [73400] [73600] [73800] [74000] [74200] [74400] [74600] [74800] [75000] [75200] [75400] [75600] [75800] [76000] [76200] [76400] [76600] [76800] [77000] [77200] [77400] [77600] [77800] [78000] [78200] [78400] [78600] [78800] [79000] [79200] [79400] [79600] [79800] [80000] [80200] [80400] [80600] [80800] [81000] [81200] [81400] [81600] [81800] [82000] [82200] [82400] [82600] [82800] [83000] [83200] [83400] [83600] [83800] [84000] [84200] [84400] [84600] [84800] [85000] [85200] [85400] [85600] [85800] [86000] [86200] [86400] [86600] [86800] [87000] [87200] [87400] [87600] [87800] [88000] [88200] [88400] [88600] [88800] [89000] [89200] [89400] [89600] [89800] [90000] [90200] [90400] [90600] [90800] [91000] [91200] [91400] [91600] [91800] [92000] [92200] [92400] [92600] [92800] [93000] [93200] [93400] [93600] [93800] [94000] [94200] [94400] [94600] [94800] [95000] [95200] [95400] [95600] [95800] [96000] [96200] [96400] [96600] [96800] [97000] [97200] [97400] [97600] [97800] [98000] [98200] [98400] [98600] [98800] [99000] [99200] [99400] [99600] [99800] [100000] [100200] [100400] [100600] [100800] [101000] [101200] [101400] [101600] [101800] [102000] [102200] [102400] [102600] [102800] [103000] [103200] [103400] [103600] [103800] [104000] [104200] [104400] [104600] [104800] [105000] [105200] [105400] [105600] [105800] [106000] [106200] [106400] [106600] [106800] [107000] [107200] [107400] [107600] [107800] [108000] [108200] [108400] [108600] [108800] [109000] [109200] [109400] [109600] [109800] [110000] [110200] [110400] [110600] [110800] [111000] [111200] [111400] [111600] [111800] [112000] [112200] [112400] [112600] [112800] [113000] [113200] [113400] [113600] [113800] [114000] [114200] [114400] [114600] [114800] [115000] [115200] [115400] [115600] [115800] [116000] [116200] [116400] [116600] [116800] [117000] [117200] [117400] [117600] [117800] [118000] [118200] [118400] [118600] [118800] [119000] [119200] [119400] [119600] [119800] [120000] [120200] [120400] [120600] [120800] [121000] [121200] [121400] [121600] [121800] [122000] [122200] [122400] [122600] [122800] [123000] [123200] [123400] [123600] [123800] [124000] [124200] [124400] [124600] [124800] [125000] [125200] [125400] [125600] [125800] [126000] [126200] [126400] [126600] [126800] [127000] [127200] [127400] [127600] [127800] [128000] [128200] [128400] [128600] [128800] [129000] [129200] [129400] [129600] [129800] [130000] [130200] [130400] [130600] [130800] [131000] [131200] [131400] [131600] [131800] [132000] [132200] [132400] [132600] [132800] [133000] [133200] [133400] [133600] [133800] [134000] [134200] [134400] [134600] [134800] [135000] [135200] [135400] [135600] [135800] [136000] [136200] [136400] [136600] [136800] [137000] [137200] [137400] [137600] [137800] [138000] [138200] [138400] [138600] [138800] [139000] [139200] [139400] [139600] [139800] [140000] [140200] [140400] [140600] [140800] [141000] [141200] [141400] [141600] [141800] [142000] [142200] [142400] [142600] [142800] [143000] [143200] [143400] [143600] [143800] [144000] [144200] [144400] [144600] [144800] [145000] [145200] [145400] [145600] [145800] [146000] [146200] [146400] [146600] [146800] [147000] [147200] [147400] [147600] [147800] [148000] [148200] [148400] [148600] [148800] [149000] [149200] [149400] [149600] [149800] [150000] [150200] [150400] [150600] [150800] [151000] [151200] [151400] [151600] [151800] [152000] [152200] [152400] [152600] [152800] [153000] [153200] [153400] [153600] [153800] [154000] [154200] [154400] [154600] [154800] [155000] [155200] [155400] [155600] [155800] [156000] [156200] [156400] [156600] [156800] [157000] [157200] [157400] [157600] [157800] [158000] [158200] [158400] [158600] [158800] [159000] [159200] [159400] [159600] [159800] [160000] [160200] [160400] [160600] [160800] [161000] [161200] [161400] [161600] [161800] [162000] [162200] [162400] [162600] [162800] [163000] [163200] [163400] [163600] [163800] [164000] [164200] [164400] [164600]
 
  The service has been written by
Heinrich Stamerjohanns